createdAt,value
2023-03-29T00:02:56.527Z,0.61
2023-03-29T00:06:03.703Z,0.67
2023-03-29T00:09:06.947Z,0.75
2023-03-29T00:12:11.162Z,0.70
2023-03-29T00:15:13.731Z,0.55
2023-03-29T00:18:17.149Z,0.64
2023-03-29T00:21:19.755Z,0.58
2023-03-29T00:24:23.940Z,0.63
2023-03-29T00:27:26.343Z,0.44
2023-03-29T00:30:28.932Z,0.29
2023-03-29T00:33:31.543Z,0.44
2023-03-29T00:36:34.068Z,0.39
2023-03-29T00:39:37.081Z,0.50
2023-03-29T00:42:43.605Z,0.39
2023-03-29T00:45:47.491Z,0.45
2023-03-29T00:48:54.968Z,0.41
2023-03-29T00:51:57.534Z,0.44
2023-03-29T00:55:06.037Z,0.43
2023-03-29T00:58:13.044Z,0.35
2023-03-29T01:01:20.568Z,0.40
2023-03-29T01:04:46.244Z,0.20
2023-03-29T01:08:18.496Z,0.31
2023-03-29T01:11:27.415Z,0.27
2023-03-29T01:14:35.472Z,0.28
2023-03-29T01:17:40.549Z,0.33
2023-03-29T01:21:14.848Z,0.25
2023-03-29T01:24:26.490Z,0.29
2023-03-29T01:27:56.014Z,0.31
2023-03-29T01:31:27.802Z,0.28
2023-03-29T01:34:38.697Z,0.23
2023-03-29T01:37:48.241Z,0.22
2023-03-29T01:40:50.793Z,0.26
2023-03-29T01:44:01.886Z,0.22
2023-03-29T01:47:29.073Z,0.18
2023-03-29T01:50:41.350Z,0.07
2023-03-29T01:53:59.219Z,-0.12
2023-03-29T01:57:04.896Z,-0.17
2023-03-29T02:00:11.350Z,-0.22
2023-03-29T02:03:19.818Z,-0.12
2023-03-29T02:06:27.067Z,-0.51
2023-03-29T02:09:30.451Z,-0.41
2023-03-29T02:12:33.841Z,-0.52
2023-03-29T02:15:38.620Z,-0.60
2023-03-29T02:18:44.101Z,-0.44
2023-03-29T02:21:55.769Z,-0.64
2023-03-29T02:25:01.820Z,-0.80
2023-03-29T02:28:06.888Z,-0.77
2023-03-29T02:31:19.063Z,-0.76
2023-03-29T02:34:31.787Z,-0.87
2023-03-29T02:37:41.021Z,-0.82
2023-03-29T02:40:45.212Z,-0.73
2023-03-29T02:43:48.511Z,-0.86
2023-03-29T02:46:56.905Z,-0.93
2023-03-29T02:50:00.299Z,-0.90
2023-03-29T02:53:09.547Z,-0.81
2023-03-29T02:56:13.887Z,-1.02
2023-03-29T03:02:22.012Z,-1.02
2023-03-29T03:05:29.686Z,-1.05
2023-03-29T03:08:32.508Z,-1.07
2023-03-29T03:11:34.998Z,-1.11
2023-03-29T03:14:38.282Z,-1.17
2023-03-29T03:17:41.127Z,-1.21
2023-03-29T03:20:46.611Z,-1.32
2023-03-29T03:23:49.626Z,-1.17
2023-03-29T03:26:52.148Z,-1.24
2023-03-29T03:29:55.102Z,-1.20
2023-03-29T03:33:20.954Z,-1.28
2023-03-29T03:36:42.042Z,-1.23
2023-03-29T03:39:44.493Z,-1.33
2023-03-29T03:42:46.953Z,-1.25
2023-03-29T03:45:49.649Z,-1.36
2023-03-29T03:48:53.529Z,-1.36
2023-03-29T03:52:02.494Z,-1.28
2023-03-29T03:55:05.455Z,-1.41
2023-03-29T03:58:19.980Z,-1.30
2023-03-29T04:01:22.736Z,-1.22
2023-03-29T04:04:35.274Z,-1.32
2023-03-29T04:07:47.900Z,-1.28
2023-03-29T04:11:08.236Z,-1.27
2023-03-29T04:14:13.513Z,-1.43
2023-03-29T04:17:34.824Z,-1.40
2023-03-29T04:20:57.590Z,-1.38
2023-03-29T04:24:01.991Z,-1.30
2023-03-29T04:27:08.136Z,-1.41
2023-03-29T04:30:11.877Z,-1.33
2023-03-29T04:33:37.458Z,-1.30
2023-03-29T04:36:40.059Z,-1.35
2023-03-29T04:39:50.091Z,-1.39
2023-03-29T04:42:54.419Z,-1.18
2023-03-29T04:45:57.908Z,-1.19
2023-03-29T04:49:19.201Z,-1.08
2023-03-29T04:52:26.581Z,-0.93
2023-03-29T04:55:29.696Z,-0.83
2023-03-29T04:58:38.458Z,-0.62
2023-03-29T05:01:42.142Z,-0.62
2023-03-29T05:04:44.899Z,-0.60
2023-03-29T05:07:50.896Z,-0.41
2023-03-29T05:10:57.916Z,-0.34
2023-03-29T05:14:03.440Z,-0.12
2023-03-29T05:17:09.043Z,0.08
2023-03-29T05:20:13.190Z,0.16
2023-03-29T05:23:19.155Z,0.34
2023-03-29T05:26:40.126Z,0.36
2023-03-29T05:29:44.838Z,0.48
2023-03-29T05:33:16.485Z,0.69
2023-03-29T05:36:21.179Z,0.88
2023-03-29T05:39:25.986Z,0.97
2023-03-29T05:42:29.063Z,1.03
2023-03-29T05:45:40.121Z,1.09
2023-03-29T05:48:43.527Z,1.21
2023-03-29T05:51:47.213Z,1.23
2023-03-29T05:54:50.847Z,1.37
2023-03-29T05:57:56.880Z,1.47
2023-03-29T06:01:05.327Z,1.41
2023-03-29T06:04:43.496Z,1.47
2023-03-29T06:07:58.956Z,1.30
2023-03-29T06:11:24.303Z,1.61
2023-03-29T06:14:41.930Z,1.65
2023-03-29T06:18:07.677Z,1.64
2023-03-29T06:21:13.568Z,1.64
2023-03-29T06:24:16.568Z,1.56
2023-03-29T06:27:25.489Z,1.68
2023-03-29T06:30:29.115Z,1.75
2023-03-29T06:33:34.197Z,2.00
2023-03-29T06:36:39.877Z,2.09
2023-03-29T06:39:42.595Z,2.17
2023-03-29T06:43:14.513Z,2.06
2023-03-29T06:46:29.496Z,2.24
2023-03-29T06:49:36.298Z,2.17
2023-03-29T06:52:48.627Z,2.34
2023-03-29T06:55:52.594Z,2.36
2023-03-29T06:59:21.729Z,2.57
2023-03-29T07:02:34.969Z,2.76
2023-03-29T07:05:44.960Z,2.73
2023-03-29T07:08:52.453Z,3.05
2023-03-29T07:12:13.576Z,3.06
2023-03-29T07:15:16.680Z,3.18
2023-03-29T07:18:46.891Z,3.47
2023-03-29T07:22:00.436Z,3.39
2023-03-29T07:25:27.658Z,3.64
2023-03-29T07:28:30.117Z,3.78
2023-03-29T07:31:35.738Z,3.75
2023-03-29T07:35:08.979Z,3.92
2023-03-29T07:38:11.486Z,4.34
2023-03-29T07:41:20.269Z,4.53
2023-03-29T07:44:27.090Z,4.80
2023-03-29T07:47:30.628Z,5.02
2023-03-29T07:50:34.710Z,4.73
2023-03-29T07:53:39.967Z,4.76
2023-03-29T07:56:54.568Z,4.96
2023-03-29T08:00:17.330Z,5.40
2023-03-29T08:03:30.249Z,5.22
2023-03-29T08:06:34.125Z,5.77
2023-03-29T08:09:37.595Z,5.75
2023-03-29T08:12:42.065Z,5.83
2023-03-29T08:15:47.386Z,5.84
2023-03-29T08:19:02.069Z,6.00
2023-03-29T08:22:19.150Z,5.80
2023-03-29T08:25:42.390Z,5.92
2023-03-29T08:28:45.920Z,6.09
2023-03-29T08:31:49.316Z,6.43
2023-03-29T08:34:51.969Z,6.56
2023-03-29T08:37:59.358Z,6.44
2023-03-29T08:41:02.240Z,7.13
2023-03-29T08:44:16.421Z,7.22
2023-03-29T08:47:51.934Z,7.44
2023-03-29T08:51:00.163Z,7.12
2023-03-29T08:54:16.211Z,7.14
2023-03-29T08:57:50.652Z,6.82
2023-03-29T09:01:09.494Z,7.24
2023-03-29T09:04:33.467Z,7.34
2023-03-29T09:07:57.504Z,7.40
2023-03-29T09:11:15.290Z,7.48
2023-03-29T09:14:33.888Z,7.84
2023-03-29T09:17:46.595Z,8.16
2023-03-29T09:21:01.712Z,7.51
2023-03-29T09:24:32.602Z,7.76
2023-03-29T09:28:14.447Z,7.57
2023-03-29T09:31:32.666Z,8.25
2023-03-29T09:34:48.411Z,8.29
2023-03-29T09:37:55.540Z,8.84
2023-03-29T09:41:06.729Z,9.13
2023-03-29T09:47:28.308Z,8.90
2023-03-29T09:50:42.318Z,8.90
2023-03-29T09:53:47.263Z,9.37
2023-03-29T09:57:13.892Z,10.21
2023-03-29T10:00:17.897Z,10.26
2023-03-29T10:03:32.209Z,11.00
2023-03-29T10:06:50.341Z,11.39
2023-03-29T10:09:56.000Z,11.21
2023-03-29T10:13:06.981Z,11.75
2023-03-29T10:16:21.749Z,13.66
2023-03-29T10:19:34.957Z,11.98
2023-03-29T10:22:40.512Z,13.00
2023-03-29T10:25:43.268Z,13.87
2023-03-29T10:28:46.121Z,13.73
2023-03-29T10:31:49.785Z,13.04
2023-03-29T10:34:53.806Z,13.46
2023-03-29T10:38:01.565Z,14.50
2023-03-29T10:41:11.693Z,14.94
2023-03-29T10:44:33.288Z,17.77
2023-03-29T10:47:36.380Z,16.40
2023-03-29T10:50:39.290Z,17.91
2023-03-29T10:53:42.443Z,20.53
2023-03-29T10:56:57.616Z,20.35
2023-03-29T11:00:09.619Z,18.57
2023-03-29T11:03:16.648Z,20.47
2023-03-29T11:06:34.800Z,21.81
2023-03-29T11:09:51.342Z,23.79
2023-03-29T11:13:10.764Z,22.03
2023-03-29T11:16:30.037Z,22.61
2023-03-29T11:20:02.378Z,24.89
2023-03-29T11:23:28.094Z,23.31
2023-03-29T11:26:30.686Z,22.36
2023-03-29T11:29:49.014Z,21.01
2023-03-29T11:32:56.349Z,18.39
2023-03-29T11:36:01.786Z,18.28
2023-03-29T11:39:04.937Z,20.59
2023-03-29T11:42:14.561Z,19.88
2023-03-29T11:45:41.909Z,18.53
2023-03-29T11:48:53.047Z,15.84
2023-03-29T11:52:03.104Z,17.40
2023-03-29T11:55:10.098Z,19.70
2023-03-29T11:58:20.335Z,21.35
2023-03-29T12:01:32.568Z,21.21
2023-03-29T12:04:41.953Z,19.60
2023-03-29T12:07:52.120Z,18.17
2023-03-29T12:11:09.900Z,18.89
2023-03-29T12:14:26.062Z,17.39
2023-03-29T12:17:39.707Z,20.14
2023-03-29T12:20:42.488Z,21.44
2023-03-29T12:23:49.075Z,19.72
2023-03-29T12:27:00.697Z,21.33
2023-03-29T12:30:15.122Z,17.48
2023-03-29T12:33:56.068Z,18.43
2023-03-29T12:37:56.626Z,17.24
2023-03-29T12:41:20.128Z,18.14
2023-03-29T12:44:59.794Z,16.77
2023-03-29T12:48:08.600Z,14.89
2023-03-29T12:51:17.299Z,18.37
2023-03-29T12:54:22.724Z,20.34
2023-03-29T12:57:40.840Z,23.10
2023-03-29T13:00:45.029Z,21.04
2023-03-29T13:03:56.130Z,17.74
2023-03-29T13:07:04.272Z,16.29
2023-03-29T13:10:28.658Z,16.38
2023-03-29T13:13:38.344Z,17.39
2023-03-29T13:16:41.854Z,15.95
2023-03-29T13:20:21.984Z,16.60
2023-03-29T13:23:58.707Z,17.83
2023-03-29T13:27:07.261Z,16.99
2023-03-29T13:30:43.809Z,18.03
2023-03-29T13:34:13.816Z,21.44
2023-03-29T13:37:25.125Z,22.98
2023-03-29T13:40:54.331Z,21.70
2023-03-29T13:43:58.150Z,18.02
2023-03-29T13:47:37.093Z,15.70
2023-03-29T13:50:52.046Z,14.27
2023-03-29T13:54:00.754Z,13.60
2023-03-29T13:57:15.820Z,13.95
2023-03-29T14:00:23.826Z,14.27
2023-03-29T14:03:30.057Z,15.83
2023-03-29T14:06:36.760Z,17.12
2023-03-29T14:09:44.672Z,19.98
2023-03-29T14:12:47.930Z,18.72
2023-03-29T14:16:07.448Z,18.33
2023-03-29T14:19:38.046Z,17.44
2023-03-29T14:22:42.994Z,16.48
2023-03-29T14:25:45.874Z,14.61
2023-03-29T14:28:49.638Z,14.16
2023-03-29T14:31:52.381Z,13.95
2023-03-29T14:34:55.180Z,13.07
2023-03-29T14:37:59.277Z,12.88
2023-03-29T14:41:03.107Z,12.60
2023-03-29T14:44:06.882Z,12.27
2023-03-29T14:47:34.219Z,12.29
2023-03-29T14:50:37.045Z,12.55
2023-03-29T14:53:40.936Z,12.33
2023-03-29T14:56:44.229Z,12.26
2023-03-29T14:59:54.498Z,12.28
2023-03-29T15:03:02.565Z,11.87
2023-03-29T15:06:06.341Z,11.85
2023-03-29T15:09:17.847Z,12.29
2023-03-29T15:12:20.829Z,11.95
2023-03-29T15:15:25.693Z,11.75
2023-03-29T15:18:41.498Z,11.34
2023-03-29T15:21:45.311Z,10.89
2023-03-29T15:24:49.068Z,10.85
2023-03-29T15:27:59.575Z,10.87
2023-03-29T15:31:15.253Z,10.69
2023-03-29T15:34:29.682Z,10.53
2023-03-29T15:37:32.434Z,10.99
2023-03-29T15:40:35.402Z,11.00
2023-03-29T15:43:38.052Z,11.00
2023-03-29T15:46:40.486Z,10.81
2023-03-29T15:49:43.254Z,10.90
2023-03-29T15:52:45.853Z,11.27
2023-03-29T15:55:52.282Z,10.83
2023-03-29T15:58:54.753Z,11.02
2023-03-29T16:01:58.801Z,10.75
2023-03-29T16:05:01.751Z,10.41
2023-03-29T16:08:04.351Z,10.59
2023-03-29T16:11:06.934Z,10.89
2023-03-29T16:14:25.222Z,10.73
2023-03-29T16:17:27.693Z,10.67
2023-03-29T16:20:30.455Z,10.67
2023-03-29T16:23:33.383Z,10.40
2023-03-29T16:26:35.818Z,10.36
2023-03-29T16:29:38.231Z,10.58
2023-03-29T16:32:41.503Z,10.51
2023-03-29T16:35:45.084Z,10.21
2023-03-29T16:38:47.592Z,10.05
2023-03-29T16:41:50.315Z,9.83
2023-03-29T16:44:54.516Z,9.79
2023-03-29T16:47:57.536Z,9.79
2023-03-29T16:51:00.110Z,9.59
2023-03-29T16:54:03.065Z,9.49
2023-03-29T16:57:07.219Z,9.53
2023-03-29T17:00:11.324Z,9.36
2023-03-29T17:03:13.859Z,9.27
2023-03-29T17:06:16.328Z,9.22
2023-03-29T17:09:19.238Z,9.14
2023-03-29T17:12:23.393Z,9.15
2023-03-29T17:15:25.920Z,9.30
2023-03-29T17:18:28.455Z,9.17
2023-03-29T17:21:31.732Z,9.30
2023-03-29T17:24:34.494Z,9.29
2023-03-29T17:27:37.989Z,9.42
2023-03-29T17:30:40.792Z,9.39
2023-03-29T17:33:43.320Z,9.38
2023-03-29T17:36:46.228Z,9.49
2023-03-29T17:39:48.738Z,9.37
2023-03-29T17:42:52.622Z,9.44
2023-03-29T17:45:55.620Z,9.33
2023-03-29T17:49:00.338Z,9.33
2023-03-29T17:52:03.490Z,9.29
2023-03-29T17:55:13.356Z,9.29
2023-03-29T17:58:16.646Z,9.25
2023-03-29T18:01:19.978Z,9.15
2023-03-29T18:04:22.928Z,9.06
2023-03-29T18:07:25.442Z,9.09
2023-03-29T18:10:28.179Z,9.05
2023-03-29T18:13:30.736Z,8.95
2023-03-29T18:16:33.403Z,8.96
2023-03-29T18:19:36.307Z,8.83
2023-03-29T18:22:41.472Z,8.85
2023-03-29T18:25:44.043Z,8.80
2023-03-29T18:28:47.303Z,8.65
2023-03-29T18:31:50.775Z,8.62
2023-03-29T18:34:53.558Z,8.66
2023-03-29T18:37:56.227Z,8.68
2023-03-29T18:40:59.004Z,8.54
2023-03-29T18:44:01.990Z,8.69
2023-03-29T18:47:04.732Z,8.70
2023-03-29T18:50:09.348Z,8.49
2023-03-29T18:53:13.368Z,8.41
2023-03-29T18:56:16.119Z,8.38
2023-03-29T18:59:18.859Z,8.40
2023-03-29T19:02:21.830Z,8.38
2023-03-29T19:05:24.686Z,8.38
2023-03-29T19:08:28.303Z,8.35
2023-03-29T19:11:31.564Z,8.41
2023-03-29T19:14:34.407Z,8.24
2023-03-29T19:17:37.005Z,8.22
2023-03-29T19:20:39.782Z,8.27
2023-03-29T19:23:42.510Z,8.15
2023-03-29T19:26:47.909Z,8.30
2023-03-29T19:29:50.873Z,8.37
2023-03-29T19:32:53.758Z,8.32
2023-03-29T19:35:56.721Z,8.16
2023-03-29T19:38:59.578Z,8.11
2023-03-29T19:42:02.672Z,8.02
2023-03-29T19:45:07.847Z,7.92
2023-03-29T19:48:21.139Z,8.06
2023-03-29T19:51:29.638Z,8.07
2023-03-29T19:54:32.303Z,8.03
2023-03-29T19:57:35.006Z,8.03
2023-03-29T20:00:39.095Z,7.95
2023-03-29T20:03:43.499Z,7.93
2023-03-29T20:06:46.832Z,8.00
2023-03-29T20:09:49.273Z,8.02
2023-03-29T20:12:52.227Z,8.01
2023-03-29T20:15:54.770Z,7.84
2023-03-29T20:18:57.445Z,7.94
2023-03-29T20:22:00.695Z,8.04
2023-03-29T20:25:03.854Z,8.00
2023-03-29T20:28:06.643Z,7.95
2023-03-29T20:31:11.018Z,7.98
2023-03-29T20:34:13.627Z,7.91
2023-03-29T20:37:16.065Z,7.91
2023-03-29T20:40:18.837Z,8.04
2023-03-29T20:43:21.853Z,7.95
2023-03-29T20:46:33.505Z,8.05
2023-03-29T20:49:39.845Z,8.14
2023-03-29T20:52:47.711Z,8.13
2023-03-29T20:55:50.166Z,8.17
2023-03-29T20:58:55.551Z,8.24
2023-03-29T21:01:58.357Z,8.29
2023-03-29T21:05:02.546Z,8.37
2023-03-29T21:08:05.074Z,8.38
2023-03-29T21:11:08.200Z,8.28
2023-03-29T21:14:11.139Z,8.29
2023-03-29T21:17:14.163Z,8.30
2023-03-29T21:20:16.630Z,8.38
2023-03-29T21:23:19.075Z,8.45
2023-03-29T21:26:22.797Z,8.47
2023-03-29T21:29:26.472Z,8.46
2023-03-29T21:32:29.035Z,8.43
2023-03-29T21:35:33.405Z,8.38
2023-03-29T21:38:36.503Z,8.34
2023-03-29T21:41:39.037Z,8.22
2023-03-29T21:44:41.472Z,8.24
2023-03-29T21:47:43.936Z,8.37
2023-03-29T21:50:50.456Z,8.26
2023-03-29T21:53:52.859Z,8.30
2023-03-29T21:56:55.502Z,8.20
2023-03-29T21:59:58.033Z,8.13
2023-03-29T22:03:00.728Z,8.00
2023-03-29T22:06:07.998Z,7.80
2023-03-29T22:09:11.290Z,7.86
2023-03-29T22:12:13.789Z,7.93
2023-03-29T22:15:17.597Z,7.81
2023-03-29T22:18:20.831Z,7.77
2023-03-29T22:21:26.834Z,7.72
2023-03-29T22:24:29.344Z,7.50
2023-03-29T22:27:32.094Z,7.58
2023-03-29T22:30:34.524Z,7.54
2023-03-29T22:33:38.395Z,7.49
2023-03-29T22:36:40.861Z,7.54
2023-03-29T22:39:43.557Z,7.53
2023-03-29T22:42:46.126Z,7.46
2023-03-29T22:45:48.976Z,7.60
2023-03-29T22:48:52.416Z,7.57
2023-03-29T22:51:55.627Z,7.57
2023-03-29T22:54:58.026Z,7.59
2023-03-29T22:58:00.649Z,7.58
2023-03-29T23:01:04.113Z,7.50
2023-03-29T23:04:07.291Z,7.54
2023-03-29T23:07:09.702Z,7.55
2023-03-29T23:10:12.875Z,7.30
2023-03-29T23:13:20.533Z,7.08
2023-03-29T23:16:23.200Z,7.05
2023-03-29T23:19:25.973Z,7.08
2023-03-29T23:22:28.806Z,7.12
2023-03-29T23:25:31.458Z,7.08
2023-03-29T23:28:34.769Z,7.09
2023-03-29T23:31:37.817Z,7.10
2023-03-29T23:34:40.574Z,7.06
2023-03-29T23:37:43.320Z,7.08
2023-03-29T23:40:53.125Z,7.03
2023-03-29T23:43:57.660Z,7.07
2023-03-29T23:47:01.142Z,7.15
2023-03-29T23:50:04.679Z,7.17
2023-03-29T23:53:07.340Z,7.00
2023-03-29T23:56:10.237Z,6.94
2023-03-29T23:59:13.104Z,6.94
